Time;durP1;ratioP1;P1;durP2;ratioP2;P2;SDS_P1;SDS_P2;PMS_P1;PMS_P2;Temp;Humidity;BMP_temperature;BMP_pressure;BME280_temperature;BME280_humidity;BME280_pressure;Samples;Min_cycle;Max_cycle;Signal;HPM_P1;HPM_P2
2022/03/22 00:01:48;;;;;;;91.17;41.47;;;;;;;;;;5076869;28;20223;-52
2022/03/22 00:04:15;;;;;;;109.60;49.70;;;;;;;;;;5077030;28;20723;-51
2022/03/22 00:06:43;;;;;;;117.90;50.63;;;;;;;;;;5077056;28;20596;-51
2022/03/22 00:09:10;;;;;;;130.10;55.10;;;;;;;;;;5077132;28;20285;-53
2022/03/22 00:11:38;;;;;;;127.97;54.93;;;;;;;;;;5076725;28;20633;-52
2022/03/22 00:14:08;;;;;;;131.83;56.13;;;;;;;;;;5076970;28;20230;-52
2022/03/22 00:16:37;;;;;;;118.37;53.30;;;;;;;;;;5076644;28;20285;-54
2022/03/22 00:19:24;;;;;;;116.53;52.43;;;;;;;;;;5062065;28;20230;-52
2022/03/22 00:21:51;;;;;;;106.03;49.00;;;;;;;;;;5076699;28;20221;-52
2022/03/22 00:24:18;;;;;;;108.27;51.03;;;;;;;;;;5076338;28;20662;-52
2022/03/22 00:26:45;;;;;;;142.87;56.57;;;;;;;;;;5076279;28;20219;-55
2022/03/22 00:29:12;;;;;;;139.23;56.13;;;;;;;;;;5076432;28;20231;-54
2022/03/22 00:31:40;;;;;;;120.60;51.23;;;;;;;;;;5076334;28;20204;-55
2022/03/22 00:34:12;;;;;;;96.17;45.87;;;;;;;;;;5076579;28;20227;-52
2022/03/22 00:36:40;;;;;;;96.77;44.90;;;;;;;;;;5076398;28;20621;-51
2022/03/22 00:39:07;;;;;;;92.17;43.30;;;;;;;;;;5075926;28;20202;-51
2022/03/22 00:41:35;;;;;;;101.80;43.10;;;;;;;;;;5076279;28;20229;-52
2022/03/22 00:44:02;;;;;;;111.60;48.47;;;;;;;;;;5076281;28;20277;-50
2022/03/22 00:46:29;;;;;;;112.57;50.07;;;;;;;;;;5075963;28;20203;-51
2022/03/22 00:48:58;;;;;;;108.93;47.83;;;;;;;;;;5076288;28;20616;-51
2022/03/22 00:51:25;;;;;;;116.93;49.60;;;;;;;;;;5076008;28;20211;-52
2022/03/22 00:53:53;;;;;;;128.20;50.70;;;;;;;;;;5076027;28;20279;-51
2022/03/22 00:56:20;;;;;;;119.13;50.37;;;;;;;;;;5075762;28;20237;-52
2022/03/22 01:00:01;;;;;;;105.33;46.40;;;;;;;;;;5075821;28;20642;-52
2022/03/22 01:01:34;;;;;;;99.13;45.70;;;;;;;;;;5075935;28;20207;-51
2022/03/22 01:04:04;;;;;;;95.10;42.93;;;;;;;;;;5075480;28;20262;-51
2022/03/22 01:06:32;;;;;;;89.97;43.60;;;;;;;;;;5076081;28;20546;-52
2022/03/22 01:09:00;;;;;;;94.50;44.83;;;;;;;;;;5075776;28;20230;-51
2022/03/22 01:11:27;;;;;;;95.73;43.63;;;;;;;;;;5075803;28;20278;-52
2022/03/22 01:13:55;;;;;;;85.90;41.80;;;;;;;;;;5075472;28;20695;-50
2022/03/22 01:16:22;;;;;;;92.73;42.57;;;;;;;;;;5075788;28;20211;-52
2022/03/22 01:18:50;;;;;;;96.10;45.13;;;;;;;;;;5058343;28;20649;-50
2022/03/22 01:21:17;;;;;;;88.83;43.43;;;;;;;;;;5075587;28;20199;-52
2022/03/22 01:23:44;;;;;;;93.07;44.83;;;;;;;;;;5075456;28;20705;-51
2022/03/22 01:26:11;;;;;;;99.33;45.33;;;;;;;;;;5075047;28;20214;-52
2022/03/22 01:28:38;;;;;;;105.40;46.93;;;;;;;;;;5074938;28;20219;-51
2022/03/22 01:31:06;;;;;;;99.13;43.53;;;;;;;;;;5075099;28;20227;-51
2022/03/22 01:33:33;;;;;;;95.37;43.67;;;;;;;;;;5075309;28;20207;-53
2022/03/22 01:36:00;;;;;;;93.70;43.73;;;;;;;;;;5075499;28;20207;-51
2022/03/22 01:38:27;;;;;;;115.90;47.97;;;;;;;;;;5075008;28;20224;-52
2022/03/22 01:40:54;;;;;;;224.40;74.17;;;;;;;;;;5075211;28;20688;-51
2022/03/22 01:43:21;;;;;;;280.17;88.17;;;;;;;;;;5075640;28;20596;-51
2022/03/22 01:45:49;;;;;;;288.40;89.97;;;;;;;;;;5075415;28;20587;-51
2022/03/22 01:48:16;;;;;;;738.13;316.13;;;;;;;;;;5075047;28;20219;-51
2022/03/22 01:50:43;;;;;;;819.77;310.17;;;;;;;;;;5075214;28;20204;-51
2022/03/22 01:53:11;;;;;;;342.30;107.20;;;;;;;;;;5075024;28;20203;-52
2022/03/22 01:55:39;;;;;;;236.50;80.63;;;;;;;;;;5075239;28;20196;-51
2022/03/22 01:58:06;;;;;;;172.17;64.03;;;;;;;;;;5074713;28;20210;-51
2022/03/22 02:00:33;;;;;;;110.50;49.67;;;;;;;;;;5074944;28;20626;-51
2022/03/22 02:05:55;;;;;;;144.07;58.63;;;;;;;;;;5074709;28;20207;-52
2022/03/22 02:08:30;;;;;;;99.83;47.57;;;;;;;;;;5075482;28;20187;-51
2022/03/22 02:10:59;;;;;;;81.40;40.80;;;;;;;;;;5074900;28;20287;-51
2022/03/22 02:13:31;;;;;;;79.43;39.30;;;;;;;;;;5074894;28;20217;-51
2022/03/22 02:15:59;;;;;;;79.17;40.50;;;;;;;;;;5074848;28;20202;-53
2022/03/22 02:18:27;;;;;;;94.33;43.27;;;;;;;;;;5074517;28;20317;-52
2022/03/22 02:20:54;;;;;;;94.30;44.20;;;;;;;;;;5074932;28;20594;-51
2022/03/22 02:23:35;;;;;;;82.73;38.63;;;;;;;;;;5074369;28;20657;-51
2022/03/22 02:26:02;;;;;;;93.07;41.87;;;;;;;;;;5074482;28;20203;-51
2022/03/22 02:28:31;;;;;;;95.70;43.30;;;;;;;;;;5074430;28;20644;-51
2022/03/22 02:30:57;;;;;;;97.70;44.63;;;;;;;;;;5074533;28;20223;-51
2022/03/22 02:33:25;;;;;;;109.73;47.80;;;;;;;;;;5074985;28;20302;-52
2022/03/22 02:35:52;;;;;;;204.70;66.23;;;;;;;;;;5075051;28;20203;-51
2022/03/22 02:38:19;;;;;;;225.87;74.27;;;;;;;;;;5073435;28;20321;-51
2022/03/22 02:40:46;;;;;;;205.00;66.20;;;;;;;;;;5067203;28;20741;-52
2022/03/22 02:43:13;;;;;;;110.00;48.20;;;;;;;;;;5040988;28;20231;-51
2022/03/22 02:45:40;;;;;;;153.57;54.33;;;;;;;;;;5058590;28;20199;-52
2022/03/22 02:48:08;;;;;;;115.07;49.10;;;;;;;;;;5058236;28;20200;-51
2022/03/22 02:50:35;;;;;;;196.20;65.07;;;;;;;;;;5058437;28;20287;-51
2022/03/22 02:53:02;;;;;;;179.63;65.07;;;;;;;;;;5058379;28;20634;-54
2022/03/22 02:55:30;;;;;;;204.10;73.03;;;;;;;;;;5058128;28;20280;-54
2022/03/22 02:57:58;;;;;;;412.17;100.13;;;;;;;;;;5058699;28;20390;-52
2022/03/22 03:00:26;;;;;;;218.43;67.53;;;;;;;;;;5058184;28;20200;-53
2022/03/22 03:02:54;;;;;;;242.97;73.40;;;;;;;;;;5057783;28;20212;-52
2022/03/22 03:05:22;;;;;;;309.37;82.33;;;;;;;;;;5057901;28;20227;-51
2022/03/22 03:07:50;;;;;;;337.30;89.10;;;;;;;;;;5057920;28;20219;-54
2022/03/22 03:10:18;;;;;;;369.43;89.17;;;;;;;;;;5057892;28;20201;-54
2022/03/22 03:12:45;;;;;;;431.67;107.63;;;;;;;;;;5058203;28;20200;-53
2022/03/22 03:15:12;;;;;;;344.43;102.93;;;;;;;;;;5057890;28;20287;-52
2022/03/22 03:17:39;;;;;;;830.87;231.20;;;;;;;;;;5088724;28;20271;-51
2022/03/22 03:20:07;;;;;;;720.53;180.43;;;;;;;;;;5098068;28;20233;-52
2022/03/22 03:22:35;;;;;;;469.40;115.53;;;;;;;;;;5097903;28;20195;-52
2022/03/22 03:25:06;;;;;;;369.27;93.43;;;;;;;;;;5097824;28;20720;-51
2022/03/22 03:27:33;;;;;;;290.93;76.20;;;;;;;;;;5098020;28;20194;-52
2022/03/22 03:30:00;;;;;;;363.20;85.27;;;;;;;;;;5098258;28;20202;-51
2022/03/22 03:32:27;;;;;;;366.80;88.03;;;;;;;;;;5097808;28;20220;-51
2022/03/22 03:34:54;;;;;;;1999.90;790.40;;;;;;;;;;5098045;28;20202;-53
2022/03/22 03:37:25;;;;;;;1737.70;778.77;;;;;;;;;;5098399;28;20256;-52
2022/03/22 03:39:52;;;;;;;933.97;416.77;;;;;;;;;;5098092;28;20579;-50
2022/03/22 03:42:20;;;;;;;452.07;169.47;;;;;;;;;;5097862;28;20206;-51
2022/03/22 03:47:34;;;;;;;287.73;107.20;;;;;;;;;;5097528;28;20644;-51
2022/03/22 03:50:05;;;;;;;214.57;77.67;;;;;;;;;;5097580;28;20227;-52
2022/03/22 03:52:35;;;;;;;169.33;63.50;;;;;;;;;;5097526;28;20209;-51
2022/03/22 03:55:06;;;;;;;119.43;51.23;;;;;;;;;;5097386;28;20206;-51
2022/03/22 03:57:35;;;;;;;92.97;45.30;;;;;;;;;;5097119;28;20537;-51
2022/03/22 04:00:03;;;;;;;110.63;53.77;;;;;;;;;;5097300;28;20222;-51
2022/03/22 04:02:40;;;;;;;156.97;56.70;;;;;;;;;;5097175;28;20199;-54
2022/03/22 04:05:09;;;;;;;127.00;53.80;;;;;;;;;;5097003;28;20231;-52
2022/03/22 04:07:36;;;;;;;120.67;53.23;;;;;;;;;;5096919;28;20211;-53
2022/03/22 04:10:04;;;;;;;124.37;54.03;;;;;;;;;;5096759;28;20214;-52
2022/03/22 04:12:31;;;;;;;120.63;53.60;;;;;;;;;;5096698;28;20217;-51
2022/03/22 04:15:02;;;;;;;201.23;68.47;;;;;;;;;;5096968;28;20217;-52
2022/03/22 04:17:29;;;;;;;243.20;81.97;;;;;;;;;;5096804;28;20202;-52
2022/03/22 04:19:56;;;;;;;234.50;82.53;;;;;;;;;;5096536;28;20202;-53
2022/03/22 04:22:23;;;;;;;322.17;97.10;;;;;;;;;;5096509;28;20633;-54
2022/03/22 04:24:51;;;;;;;264.30;82.77;;;;;;;;;;5096717;28;20230;-51
2022/03/22 04:32:49;;;;;;;157.43;60.23;;;;;;;;;;5096521;28;20575;-54
2022/03/22 04:35:19;;;;;;;136.67;57.70;;;;;;;;;;5096499;28;20217;-51
2022/03/22 04:37:47;;;;;;;146.07;58.77;;;;;;;;;;5096456;28;20541;-53
2022/03/22 04:40:14;;;;;;;214.00;70.63;;;;;;;;;;5073178;28;20235;-52
2022/03/22 04:42:42;;;;;;;536.97;131.13;;;;;;;;;;5069540;28;20234;-50
2022/03/22 04:45:10;;;;;;;515.97;128.17;;;;;;;;;;5076185;28;20597;-56
2022/03/22 04:47:37;;;;;;;161.23;61.83;;;;;;;;;;5071338;28;20670;-56
2022/03/22 04:50:06;;;;;;;167.17;59.30;;;;;;;;;;5057288;28;20231;-57
2022/03/22 04:58:08;;;;;;;114.83;50.10;;;;;;;;;;5065104;28;20302;-54
2022/03/22 05:00:35;;;;;;;111.90;51.20;;;;;;;;;;5066950;28;20227;-55
2022/03/22 05:03:04;;;;;;;111.67;52.10;;;;;;;;;;5066853;28;20243;-55
2022/03/22 05:08:16;;;;;;;154.13;65.47;;;;;;;;;;5069035;28;20219;-55
2022/03/22 05:10:44;;;;;;;139.50;60.87;;;;;;;;;;5063017;28;20725;-57
2022/03/22 05:13:11;;;;;;;137.43;59.00;;;;;;;;;;5061194;28;20220;-51
2022/03/22 05:15:38;;;;;;;127.40;59.40;;;;;;;;;;5067249;28;20223;-53
2022/03/22 05:18:05;;;;;;;125.77;58.00;;;;;;;;;;5074731;28;20674;-51
2022/03/22 05:20:32;;;;;;;136.77;61.17;;;;;;;;;;5074069;28;20601;-51
2022/03/22 05:23:00;;;;;;;136.70;62.20;;;;;;;;;;5074612;28;20549;-52
2022/03/22 05:25:31;;;;;;;132.93;64.83;;;;;;;;;;5073808;28;20254;-52
2022/03/22 05:27:59;;;;;;;122.47;61.40;;;;;;;;;;5074702;28;20241;-53
2022/03/22 05:30:27;;;;;;;118.07;56.33;;;;;;;;;;5074283;28;20314;-55
2022/03/22 05:32:54;;;;;;;133.43;59.80;;;;;;;;;;5074471;28;20231;-56
2022/03/22 05:35:21;;;;;;;125.77;58.80;;;;;;;;;;5073906;28;20227;-56
2022/03/22 05:37:48;;;;;;;111.77;55.10;;;;;;;;;;5074181;28;20700;-54
2022/03/22 05:40:16;;;;;;;128.60;57.23;;;;;;;;;;5073784;28;20309;-55
2022/03/22 05:42:43;;;;;;;110.10;54.80;;;;;;;;;;5074283;28;20734;-50
2022/03/22 05:45:11;;;;;;;121.53;57.27;;;;;;;;;;5073902;28;20693;-56
2022/03/22 05:47:39;;;;;;;128.43;56.80;;;;;;;;;;5073781;28;20223;-54
2022/03/22 05:50:08;;;;;;;123.77;56.10;;;;;;;;;;5073089;28;20296;-59
2022/03/22 05:52:45;;;;;;;113.00;56.27;;;;;;;;;;5052840;28;20254;-58
2022/03/22 05:55:13;;;;;;;109.43;54.23;;;;;;;;;;5059135;28;20610;-57
2022/03/22 05:57:40;;;;;;;121.63;55.57;;;;;;;;;;5073769;28;20232;-57
2022/03/22 06:00:09;;;;;;;109.97;53.97;;;;;;;;;;5074345;28;20242;-56
2022/03/22 06:02:38;;;;;;;116.57;54.60;;;;;;;;;;5073962;28;20231;-58
2022/03/22 06:05:08;;;;;;;110.27;54.67;;;;;;;;;;5074320;28;20247;-56
2022/03/22 06:07:38;;;;;;;107.73;54.97;;;;;;;;;;5073666;28;20242;-58
2022/03/22 06:10:08;;;;;;;119.10;57.30;;;;;;;;;;5073429;28;20676;-58
2022/03/22 06:12:45;;;;;;;118.00;57.80;;;;;;;;;;5074232;28;20203;-59
2022/03/22 06:15:18;;;;;;;122.77;56.70;;;;;;;;;;5072163;28;20262;-58
2022/03/22 06:17:50;;;;;;;109.30;54.30;;;;;;;;;;5071074;28;20374;-58
2022/03/22 06:20:19;;;;;;;125.80;56.80;;;;;;;;;;5073200;28;20192;-60
2022/03/22 06:22:47;;;;;;;116.60;56.33;;;;;;;;;;5070709;28;20199;-57
2022/03/22 06:25:14;;;;;;;113.50;56.87;;;;;;;;;;5073306;28;20242;-58
2022/03/22 06:27:43;;;;;;;115.77;56.97;;;;;;;;;;5073205;28;20191;-58
2022/03/22 06:30:13;;;;;;;117.60;56.73;;;;;;;;;;5074937;28;20273;-57
2022/03/22 06:32:45;;;;;;;108.80;55.57;;;;;;;;;;5074571;28;20210;-57
2022/03/22 06:35:14;;;;;;;124.47;56.43;;;;;;;;;;5074621;28;20631;-57
2022/03/22 06:37:43;;;;;;;118.27;57.07;;;;;;;;;;5074431;28;20207;-57
2022/03/22 06:40:12;;;;;;;118.27;59.90;;;;;;;;;;5074557;28;20272;-57
2022/03/22 06:42:41;;;;;;;119.97;59.00;;;;;;;;;;5074369;28;20567;-57
2022/03/22 06:45:10;;;;;;;118.10;57.83;;;;;;;;;;5074602;28;20248;-56
2022/03/22 06:47:41;;;;;;;103.80;53.63;;;;;;;;;;5074524;28;20210;-57
2022/03/22 06:50:09;;;;;;;100.50;53.37;;;;;;;;;;5074693;28;20223;-56
2022/03/22 06:52:37;;;;;;;105.23;50.87;;;;;;;;;;5074042;28;20209;-57
2022/03/22 06:55:06;;;;;;;100.03;50.93;;;;;;;;;;5074272;28;20592;-55
2022/03/22 06:57:33;;;;;;;92.47;49.10;;;;;;;;;;5074447;28;20195;-56
2022/03/22 07:00:04;;;;;;;96.40;48.60;;;;;;;;;;5074304;28;20547;-57
2022/03/22 07:02:31;;;;;;;91.70;47.73;;;;;;;;;;5074501;28;20199;-56
2022/03/22 07:04:59;;;;;;;85.40;43.53;;;;;;;;;;5073813;28;20314;-57
2022/03/22 07:07:26;;;;;;;88.83;48.10;;;;;;;;;;5074346;28;20302;-56
2022/03/22 07:09:53;;;;;;;84.20;45.07;;;;;;;;;;5074372;28;20199;-55
2022/03/22 07:12:20;;;;;;;85.57;44.63;;;;;;;;;;5074484;28;20204;-56
2022/03/22 07:14:47;;;;;;;90.30;46.87;;;;;;;;;;5074306;28;20222;-57
2022/03/22 07:17:15;;;;;;;95.60;46.63;;;;;;;;;;5074293;28;20211;-56
2022/03/22 07:19:47;;;;;;;97.77;47.93;;;;;;;;;;5074240;28;20223;-56
2022/03/22 07:22:14;;;;;;;103.70;55.53;;;;;;;;;;5074134;28;20211;-55
2022/03/22 07:24:41;;;;;;;115.80;58.83;;;;;;;;;;5074363;28;20280;-57
2022/03/22 07:27:08;;;;;;;105.00;57.87;;;;;;;;;;5077689;28;20203;-57
2022/03/22 07:29:35;;;;;;;99.63;53.60;;;;;;;;;;5077843;28;20195;-57
2022/03/22 07:32:03;;;;;;;100.83;54.47;;;;;;;;;;5077635;28;20653;-58
2022/03/22 07:34:31;;;;;;;102.57;55.07;;;;;;;;;;5077988;28;20241;-56
2022/03/22 07:36:58;;;;;;;99.43;53.53;;;;;;;;;;5077349;28;20203;-56
2022/03/22 07:39:27;;;;;;;99.20;53.07;;;;;;;;;;5077630;28;20234;-57
2022/03/22 07:41:54;;;;;;;106.77;53.97;;;;;;;;;;5077335;28;20645;-57
2022/03/22 07:44:22;;;;;;;99.50;51.73;;;;;;;;;;5077679;28;20265;-57
2022/03/22 07:46:49;;;;;;;95.23;51.30;;;;;;;;;;5077344;28;20208;-56
2022/03/22 07:54:48;;;;;;;92.10;51.00;;;;;;;;;;5077769;28;20207;-57
2022/03/22 07:57:15;;;;;;;92.80;51.13;;;;;;;;;;5077004;28;20290;-57
2022/03/22 07:59:42;;;;;;;89.93;50.07;;;;;;;;;;5060070;28;20578;-57
2022/03/22 08:02:09;;;;;;;87.17;49.67;;;;;;;;;;5077290;28;20623;-57
2022/03/22 08:04:37;;;;;;;84.87;45.90;;;;;;;;;;5077046;28;20239;-57
2022/03/22 08:07:04;;;;;;;85.53;48.20;;;;;;;;;;5077449;28;20199;-57
2022/03/22 08:09:31;;;;;;;84.90;45.50;;;;;;;;;;5076887;28;20204;-57
2022/03/22 08:11:58;;;;;;;81.03;44.97;;;;;;;;;;5077015;28;20625;-57
2022/03/22 08:14:25;;;;;;;80.90;46.00;;;;;;;;;;5077616;28;20276;-57
2022/03/22 08:16:53;;;;;;;84.70;46.08;;;;;;;;;;5076981;28;20215;-57
2022/03/22 08:19:20;;;;;;;80.13;43.10;;;;;;;;;;5076660;28;20702;-56
2022/03/22 08:21:48;;;;;;;79.68;43.97;;;;;;;;;;5076863;28;20204;-56
2022/03/22 08:24:15;;;;;;;68.90;41.13;;;;;;;;;;5076607;28;20216;-55
2022/03/22 08:26:43;;;;;;;71.63;39.85;;;;;;;;;;5076784;28;20554;-57
2022/03/22 08:29:10;;;;;;;69.78;39.55;;;;;;;;;;5077506;28;20256;-57
2022/03/22 08:31:43;;;;;;;69.13;38.90;;;;;;;;;;5076453;28;20627;-57
2022/03/22 08:34:10;;;;;;;60.13;37.38;;;;;;;;;;5076611;28;20269;-57
2022/03/22 08:36:38;;;;;;;61.22;36.17;;;;;;;;;;5076251;28;20648;-57
2022/03/22 08:39:05;;;;;;;61.70;33.72;;;;;;;;;;5076249;28;20207;-57
2022/03/22 08:41:32;;;;;;;62.03;33.10;;;;;;;;;;5076393;28;20229;-57
2022/03/22 08:43:59;;;;;;;57.83;29.73;;;;;;;;;;5076478;28;20222;-57
2022/03/22 08:46:26;;;;;;;50.92;28.98;;;;;;;;;;5076387;28;20215;-57
2022/03/22 08:48:53;;;;;;;45.80;25.27;;;;;;;;;;5076443;28;20201;-57
2022/03/22 08:51:24;;;;;;;48.83;25.85;;;;;;;;;;5075889;28;20290;-57
2022/03/22 08:53:53;;;;;;;39.30;20.83;;;;;;;;;;5076339;28;20200;-57
2022/03/22 08:56:22;;;;;;;33.97;17.85;;;;;;;;;;5076238;28;20240;-57
2022/03/22 08:58:53;;;;;;;31.27;17.23;;;;;;;;;;5076148;28;20298;-57
2022/03/22 09:01:24;;;;;;;29.02;16.33;;;;;;;;;;5075901;28;20698;-57
2022/03/22 09:06:38;;;;;;;26.25;13.07;;;;;;;;;;5075906;28;20235;-58
2022/03/22 09:09:05;;;;;;;25.17;13.30;;;;;;;;;;5075771;28;20221;-57
2022/03/22 09:11:37;;;;;;;24.30;12.40;;;;;;;;;;5075731;28;20302;-58
2022/03/22 09:14:05;;;;;;;27.55;13.90;;;;;;;;;;5075828;28;20199;-57
2022/03/22 09:16:33;;;;;;;24.65;11.27;;;;;;;;;;5075408;28;20203;-57
2022/03/22 09:19:01;;;;;;;24.65;11.38;;;;;;;;;;5075762;28;20211;-57
2022/03/22 09:21:29;;;;;;;23.30;12.10;;;;;;;;;;5075404;28;20236;-58
2022/03/22 09:23:56;;;;;;;11.43;5.20;;;;;;;;;;5075504;28;20207;-57
2022/03/22 09:26:24;;;;;;;13.38;6.22;;;;;;;;;;5075555;28;20376;-58
2022/03/22 09:28:52;;;;;;;11.57;5.78;;;;;;;;;;5075555;28;20196;-57
2022/03/22 09:31:21;;;;;;;13.13;6.30;;;;;;;;;;5075865;28;20234;-58
2022/03/22 09:33:48;;;;;;;83.72;28.33;;;;;;;;;;5075182;28;20214;-57
2022/03/22 09:36:16;;;;;;;13.30;5.70;;;;;;;;;;5075578;28;20211;-59
2022/03/22 09:38:44;;;;;;;13.20;5.18;;;;;;;;;;5075284;28;20249;-58
2022/03/22 09:41:13;;;;;;;12.15;4.60;;;;;;;;;;5075308;28;20286;-58
2022/03/22 09:43:48;;;;;;;13.48;4.88;;;;;;;;;;5075232;28;20234;-56
2022/03/22 09:46:20;;;;;;;19.88;6.25;;;;;;;;;;5075320;28;20617;-57
2022/03/22 09:48:48;;;;;;;19.00;4.90;;;;;;;;;;5074861;28;20203;-58
2022/03/22 09:54:03;;;;;;;11.32;5.03;;;;;;;;;;5074985;28;20199;-58
2022/03/22 09:56:30;;;;;;;12.45;5.18;;;;;;;;;;5075107;28;20696;-57
2022/03/22 09:58:59;;;;;;;11.50;5.00;;;;;;;;;;5074902;28;20591;-58
2022/03/22 10:01:26;;;;;;;10.00;5.18;;;;;;;;;;5074862;28;20735;-58
2022/03/22 10:04:09;;;;;;;10.82;5.57;;;;;;;;;;5075032;28;20308;-58
2022/03/22 10:06:36;;;;;;;10.32;5.13;;;;;;;;;;5074700;28;20234;-58
2022/03/22 10:09:05;;;;;;;9.35;5.88;;;;;;;;;;5024387;28;20285;-58
2022/03/22 10:11:37;;;;;;;9.02;4.95;;;;;;;;;;5074612;28;20659;-58
2022/03/22 10:14:07;;;;;;;12.55;6.85;;;;;;;;;;5074875;28;20665;-58
2022/03/22 10:17:08;;;;;;;11.13;6.78;;;;;;;;;;5074747;28;20219;-59
2022/03/22 10:19:41;;;;;;;14.93;6.50;;;;;;;;;;5046662;28;20199;-58
2022/03/22 10:22:11;;;;;;;14.73;6.25;;;;;;;;;;5075079;28;20204;-57
2022/03/22 10:24:46;;;;;;;20.33;8.10;;;;;;;;;;5074946;28;20238;-58
2022/03/22 10:27:33;;;;;;;10.10;5.10;;;;;;;;;;5074459;28;20257;-59
2022/03/22 10:30:20;;;;;;;16.63;6.85;;;;;;;;;;5074981;28;20184;-58
2022/03/22 10:32:51;;;;;;;14.32;6.45;;;;;;;;;;5074830;28;20286;-58
2022/03/22 10:35:33;;;;;;;14.52;7.35;;;;;;;;;;5074685;28;20672;-58
2022/03/22 10:38:06;;;;;;;19.77;8.18;;;;;;;;;;5074416;28;20223;-58
2022/03/22 10:40:35;;;;;;;11.90;6.15;;;;;;;;;;5074560;28;20638;-57
2022/03/22 10:43:08;;;;;;;11.45;7.28;;;;;;;;;;5074485;28;20207;-58
2022/03/22 10:45:45;;;;;;;24.83;9.93;;;;;;;;;;5074658;28;20261;-58
2022/03/22 10:48:17;;;;;;;11.25;6.22;;;;;;;;;;5074574;28;20286;-58
2022/03/22 10:50:46;;;;;;;15.10;6.35;;;;;;;;;;5074313;28;20191;-58
2022/03/22 10:53:19;;;;;;;13.35;5.80;;;;;;;;;;5074378;28;20296;-57
2022/03/22 10:55:46;;;;;;;12.02;5.93;;;;;;;;;;5074718;28;20277;-58
2022/03/22 10:58:17;;;;;;;11.48;5.80;;;;;;;;;;5074199;28;20333;-58
2022/03/22 11:00:45;;;;;;;13.60;6.90;;;;;;;;;;5059441;28;20203;-58
2022/03/22 11:03:14;;;;;;;14.25;6.93;;;;;;;;;;5077889;28;20230;-58
2022/03/22 11:05:45;;;;;;;16.67;7.30;;;;;;;;;;5077989;28;20676;-58
2022/03/22 11:08:12;;;;;;;14.10;6.50;;;;;;;;;;5078640;28;20282;-58
2022/03/22 11:10:41;;;;;;;11.38;6.57;;;;;;;;;;5078394;28;20526;-58
2022/03/22 11:13:12;;;;;;;13.52;6.20;;;;;;;;;;5061838;28;20184;-58
2022/03/22 11:15:45;;;;;;;12.55;6.40;;;;;;;;;;5077894;28;20230;-58
2022/03/22 11:18:19;;;;;;;18.67;7.18;;;;;;;;;;5078019;28;20203;-58
2022/03/22 11:20:55;;;;;;;15.43;7.50;;;;;;;;;;5060856;28;20294;-57
2022/03/22 11:23:25;;;;;;;14.43;6.70;;;;;;;;;;5060767;28;20347;-58
2022/03/22 11:25:52;;;;;;;11.20;7.22;;;;;;;;;;5077823;28;20328;-58
2022/03/22 11:28:22;;;;;;;11.80;7.40;;;;;;;;;;5077642;28;20199;-58
2022/03/22 11:30:51;;;;;;;13.52;7.50;;;;;;;;;;5078088;28;20295;-58
2022/03/22 11:36:14;;;;;;;12.10;6.93;;;;;;;;;;5077492;28;20221;-58
2022/03/22 11:38:47;;;;;;;12.63;6.82;;;;;;;;;;5077839;28;20339;-58
2022/03/22 11:44:15;;;;;;;14.38;7.18;;;;;;;;;;5077682;28;20571;-58
2022/03/22 11:46:43;;;;;;;12.13;7.65;;;;;;;;;;5077417;28;20295;-58
2022/03/22 11:49:21;;;;;;;15.20;7.85;;;;;;;;;;5077250;28;20260;-58
2022/03/22 11:51:49;;;;;;;10.40;6.65;;;;;;;;;;5077617;28;20241;-58
2022/03/22 11:54:16;;;;;;;14.32;7.50;;;;;;;;;;5077478;28;20291;-58
2022/03/22 11:56:52;;;;;;;14.15;7.63;;;;;;;;;;5077637;28;20200;-58
2022/03/22 11:59:21;;;;;;;16.77;8.55;;;;;;;;;;5077153;28;20282;-58
2022/03/22 12:02:03;;;;;;;11.43;7.50;;;;;;;;;;5077366;28;20256;-58
2022/03/22 12:04:37;;;;;;;15.93;8.02;;;;;;;;;;5077337;28;20241;-58
2022/03/22 12:07:06;;;;;;;16.48;8.02;;;;;;;;;;5077139;28;20250;-58
2022/03/22 12:09:38;;;;;;;16.10;8.70;;;;;;;;;;5077198;28;20272;-58
2022/03/22 12:12:06;;;;;;;13.55;8.13;;;;;;;;;;5077090;28;20257;-58
2022/03/22 12:14:34;;;;;;;11.93;7.70;;;;;;;;;;5077040;28;20282;-58
2022/03/22 12:17:03;;;;;;;14.48;7.85;;;;;;;;;;5077195;28;20226;-58
2022/03/22 12:19:32;;;;;;;63.25;18.48;;;;;;;;;;5076881;28;20211;-58
2022/03/22 12:22:00;;;;;;;387.60;164.82;;;;;;;;;;5076883;28;20601;-58
2022/03/22 12:24:33;;;;;;;12.32;8.23;;;;;;;;;;5076841;28;20294;-58
2022/03/22 12:27:08;;;;;;;14.98;7.82;;;;;;;;;;5076801;28;20227;-58
2022/03/22 12:29:43;;;;;;;15.65;7.50;;;;;;;;;;5076867;28;20294;-58
2022/03/22 12:32:17;;;;;;;23.70;10.88;;;;;;;;;;5076562;28;20672;-58
2022/03/22 12:34:46;;;;;;;17.10;8.48;;;;;;;;;;5076749;28;20213;-58
2022/03/22 12:37:17;;;;;;;26.77;11.40;;;;;;;;;;5076343;28;20231;-58
2022/03/22 12:39:45;;;;;;;47.65;17.33;;;;;;;;;;5076491;28;20207;-58
2022/03/22 12:42:24;;;;;;;11.23;7.43;;;;;;;;;;5076250;28;20696;-58
2022/03/22 12:44:51;;;;;;;14.48;7.30;;;;;;;;;;5043082;28;20302;-58
2022/03/22 12:47:37;;;;;;;13.00;7.50;;;;;;;;;;5076372;28;20219;-58
2022/03/22 12:50:06;;;;;;;32.85;10.85;;;;;;;;;;5075812;28;20199;-59
2022/03/22 12:52:33;;;;;;;27.08;10.00;;;;;;;;;;5067495;28;20245;-58
2022/03/22 12:55:01;;;;;;;80.70;22.33;;;;;;;;;;5073904;28;20302;-59
2022/03/22 12:57:29;;;;;;;33.08;12.18;;;;;;;;;;5053971;28;20258;-58
2022/03/22 12:59:58;;;;;;;15.48;7.50;;;;;;;;;;5073447;28;20228;-58
2022/03/22 13:02:25;;;;;;;14.13;8.02;;;;;;;;;;5073696;28;20325;-56
2022/03/22 13:04:53;;;;;;;10.85;7.53;;;;;;;;;;5052637;28;20246;-58
2022/03/22 13:07:23;;;;;;;56.60;25.00;;;;;;;;;;5050613;28;20231;-60
2022/03/22 13:12:38;;;;;;;18.50;8.27;;;;;;;;;;5051055;28;20218;-58
2022/03/22 13:15:13;;;;;;;17.90;8.02;;;;;;;;;;5054104;28;20287;-58
2022/03/22 13:17:48;;;;;;;12.43;7.82;;;;;;;;;;5050381;28;20247;-57
2022/03/22 13:20:21;;;;;;;15.07;8.55;;;;;;;;;;5055022;28;20749;-58
2022/03/22 13:22:51;;;;;;;13.02;7.93;;;;;;;;;;5053396;28;20250;-58
2022/03/22 13:25:24;;;;;;;12.23;8.43;;;;;;;;;;5055585;28;20228;-58
2022/03/22 13:27:54;;;;;;;19.10;9.40;;;;;;;;;;5054420;28;20259;-58
2022/03/22 13:30:22;;;;;;;14.93;7.47;;;;;;;;;;5055077;28;20238;-59
2022/03/22 13:32:49;;;;;;;13.82;8.00;;;;;;;;;;5054736;28;20262;-58
2022/03/22 13:35:18;;;;;;;15.85;8.27;;;;;;;;;;5055480;28;20256;-58
2022/03/22 13:37:50;;;;;;;14.45;8.27;;;;;;;;;;5054946;28;20204;-58
2022/03/22 13:40:19;;;;;;;17.55;8.52;;;;;;;;;;5055566;28;20237;-58
2022/03/22 13:43:07;;;;;;;13.25;8.52;;;;;;;;;;5055547;28;20206;-58
2022/03/22 13:45:35;;;;;;;14.15;8.50;;;;;;;;;;5052745;28;20206;-58
2022/03/22 13:48:12;;;;;;;16.52;10.20;;;;;;;;;;5019462;28;20232;-60
2022/03/22 13:50:41;;;;;;;74.80;48.22;;;;;;;;;;5045725;28;20235;-52
2022/03/22 13:53:11;;;;;;;27.85;18.02;;;;;;;;;;5053192;28;20674;-51
2022/03/22 13:55:40;;;;;;;13.93;9.57;;;;;;;;;;5053058;28;20315;-51
2022/03/22 13:58:10;;;;;;;15.93;10.07;;;;;;;;;;5062939;28;20310;-50
2022/03/22 14:00:54;;;;;;;17.10;9.25;;;;;;;;;;5053239;28;20307;-51
2022/03/22 14:03:22;;;;;;;15.48;9.45;;;;;;;;;;5058526;28;20235;-51
2022/03/22 14:05:51;;;;;;;13.55;9.43;;;;;;;;;;5072633;28;20253;-53
2022/03/22 14:08:19;;;;;;;13.60;9.80;;;;;;;;;;5074130;28;20731;-51
2022/03/22 14:10:50;;;;;;;16.13;9.00;;;;;;;;;;5072162;28;20353;-52
2022/03/22 14:13:20;;;;;;;15.25;9.40;;;;;;;;;;5093170;28;20313;-52
2022/03/22 14:15:48;;;;;;;15.55;9.30;;;;;;;;;;5076122;28;20248;-54
2022/03/22 14:18:18;;;;;;;15.60;8.88;;;;;;;;;;5094219;28;20313;-53
2022/03/22 14:20:46;;;;;;;14.88;9.40;;;;;;;;;;5092797;28;20363;-50
2022/03/22 14:23:13;;;;;;;15.20;9.40;;;;;;;;;;5094270;28;20223;-52
2022/03/22 14:25:41;;;;;;;17.52;9.35;;;;;;;;;;5093657;28;20313;-52
2022/03/22 14:28:08;;;;;;;18.38;8.70;;;;;;;;;;5093704;28;20334;-50
2022/03/22 14:30:38;;;;;;;14.23;7.95;;;;;;;;;;5093625;28;20252;-51
2022/03/22 14:33:10;;;;;;;11.18;7.53;;;;;;;;;;5093985;28;20222;-53
2022/03/22 14:35:57;;;;;;;12.00;7.50;;;;;;;;;;5088127;28;20253;-52
2022/03/22 14:38:28;;;;;;;13.32;7.97;;;;;;;;;;5076786;28;20268;-51
2022/03/22 14:41:00;;;;;;;12.00;7.68;;;;;;;;;;5073357;28;20239;-49
2022/03/22 14:43:29;;;;;;;13.85;7.88;;;;;;;;;;5077113;28;20214;-53
2022/03/22 14:45:57;;;;;;;13.07;7.00;;;;;;;;;;5073456;28;20218;-51
2022/03/22 14:48:26;;;;;;;9.10;6.60;;;;;;;;;;5076916;28;20242;-50
2022/03/22 14:50:55;;;;;;;15.32;7.35;;;;;;;;;;5095339;28;20284;-55
2022/03/22 14:58:55;;;;;;;12.55;7.35;;;;;;;;;;5077551;28;20230;-52
2022/03/22 15:01:25;;;;;;;12.52;6.95;;;;;;;;;;5077314;28;20314;-51
2022/03/22 15:03:54;;;;;;;17.30;6.63;;;;;;;;;;5077340;28;20724;-50
2022/03/22 15:06:23;;;;;;;11.23;6.72;;;;;;;;;;5069005;28;20287;-51
2022/03/22 15:08:51;;;;;;;15.38;7.32;;;;;;;;;;5068306;28;20206;-54
2022/03/22 15:11:20;;;;;;;13.63;7.07;;;;;;;;;;5066211;28;20208;-53
2022/03/22 15:13:51;;;;;;;12.55;6.88;;;;;;;;;;5057750;28;20200;-52